Terminal Aerodrome Forecast
Issued by NWS

Home | Current Version | Previous Version | Text Only | Print | Product List | Glossary On
Versions: 1 2 3 4 5 6 7 8 9 10 11 12 13 14 15 16 17 18 19 20 21 22 23 24 25 26 27 28 29 30 31 32 33 34 35 36 37 38
391
FTUS46 KEKA 240950 AAB
TAFACV
TAF AMD
KACV 240950Z 2410/2506 13006KT 6SM -RA BR BKN026 OVC035
      TEMPO 2410/2413 5SM RA BR BKN008
     FM241400 19014G22KT 2SM RA BR SCT005 OVC015
     FM242000 27010KT 4SM -SHRA BR FEW005 OVC015
     FM250000 27003KT 6SM -SHRA OVC010=

USA.gov is the U.S. government's official web portal to all federal, state and local government web resources and services.